Terminal Aerodrome Forecast
Issued by NWS

Home | Current Version | Previous Version | Text Only | Print | Product List | Glossary On
Versions: 1 2 3 4 5 6 7 8 9 10 11 12 13 14
692
FTUS43 KUNR 110237 AAA
TAFGCC
TAF AMD
KGCC 110237Z 1103/1124 33010KT 1SM -SN OVC006
      TEMPO 1103/1106 1/2SM SN FZFG
     FM111000 31010KT P6SM OVC020
     FM111500 25010KT P6SM BKN100=

USA.gov is the U.S. government's official web portal to all federal, state and local government web resources and services.